sensor_id;sensor_type;location;lat;lon;timestamp;pressure;altitude;pressure_sealevel;temperature;humidity
5877;BME280;2964;42.144;24.730;2022-07-21T00:01:15;146975.00;;;21.81;61.61
5877;BME280;2964;42.144;24.730;2022-07-21T00:03:42;146930.66;;;21.63;62.03
5877;BME280;2964;42.144;24.730;2022-07-21T00:06:09;146869.84;;;21.38;63.60
5877;BME280;2964;42.144;24.730;2022-07-21T00:08:35;146820.44;;;21.18;64.97
5877;BME280;2964;42.144;24.730;2022-07-21T00:11:02;146871.09;;;21.38;64.35
5877;BME280;2964;42.144;24.730;2022-07-21T00:13:30;146862.22;;;21.35;64.67
5877;BME280;2964;42.144;24.730;2022-07-21T00:15:57;146849.53;;;21.30;64.92
5877;BME280;2964;42.144;24.730;2022-07-21T00:18:24;146820.44;;;21.18;64.79
5877;BME280;2964;42.144;24.730;2022-07-21T00:20:53;146845.75;;;21.28;64.61
5877;BME280;2964;42.144;24.730;2022-07-21T00:23:20;146826.75;;;21.20;65.30
5877;BME280;2964;42.144;24.730;2022-07-21T00:25:47;146771.06;;;20.98;63.95
5877;BME280;2964;42.144;24.730;2022-07-21T00:28:14;146790.03;;;21.06;63.64
5877;BME280;2964;42.144;24.730;2022-07-21T00:30:42;146872.34;;;21.39;62.17
5877;BME280;2964;42.144;24.730;2022-07-21T00:33:09;146920.53;;;21.58;60.85
5877;BME280;2964;42.144;24.730;2022-07-21T00:35:35;146953.44;;;21.72;60.10
5877;BME280;2964;42.144;24.730;2022-07-21T00:38:03;146893.94;;;21.48;60.83
5877;BME280;2964;42.144;24.730;2022-07-21T00:40:30;146864.78;;;21.36;62.19
5877;BME280;2964;42.144;24.730;2022-07-21T00:42:57;146863.47;;;21.35;62.66
5877;BME280;2964;42.144;24.730;2022-07-21T00:45:24;146877.41;;;21.41;62.50
5877;BME280;2964;42.144;24.730;2022-07-21T00:47:53;146890.13;;;21.46;62.65
5877;BME280;2964;42.144;24.730;2022-07-21T00:50:20;146862.22;;;21.35;63.69
5877;BME280;2964;42.144;24.730;2022-07-21T00:52:47;146826.75;;;21.20;63.67
5877;BME280;2964;42.144;24.730;2022-07-21T00:55:16;146797.66;;;21.09;63.71
5877;BME280;2964;42.144;24.730;2022-07-21T00:57:44;146796.41;;;21.08;63.64
5877;BME280;2964;42.144;24.730;2022-07-21T01:00:14;146786.22;;;21.04;64.31
5877;BME280;2964;42.144;24.730;2022-07-21T01:02:41;146779.94;;;21.01;64.36
5877;BME280;2964;42.144;24.730;2022-07-21T01:05:10;146779.94;;;21.01;64.40
5877;BME280;2964;42.144;24.730;2022-07-21T01:07:40;146721.69;;;20.78;64.55
5877;BME280;2964;42.144;24.730;2022-07-21T01:10:08;146757.13;;;20.92;64.30
5877;BME280;2964;42.144;24.730;2022-07-21T01:12:35;146767.25;;;20.96;63.86
5877;BME280;2964;42.144;24.730;2022-07-21T01:15:03;146757.13;;;20.92;64.60
5877;BME280;2964;42.144;24.730;2022-07-21T01:17:30;146750.81;;;20.90;65.42
5877;BME280;2964;42.144;24.730;2022-07-21T01:19:57;146721.69;;;20.78;63.33
5877;BME280;2964;42.144;24.730;2022-07-21T01:22:25;146766.00;;;20.96;63.37
5877;BME280;2964;42.144;24.730;2022-07-21T01:24:52;146681.19;;;20.61;63.98
5877;BME280;2964;42.144;24.730;2022-07-21T01:27:19;146655.84;;;20.51;63.96
5877;BME280;2964;42.144;24.730;2022-07-21T01:29:45;146703.97;;;20.71;64.05
5877;BME280;2964;42.144;24.730;2022-07-21T01:32:12;146738.16;;;20.85;64.44
5877;BME280;2964;42.144;24.730;2022-07-21T01:34:39;146729.28;;;20.81;64.62
5877;BME280;2964;42.144;24.730;2022-07-21T01:37:05;146725.50;;;20.79;64.42
5877;BME280;2964;42.144;24.730;2022-07-21T01:39:33;146672.28;;;20.58;64.02
5877;BME280;2964;42.144;24.730;2022-07-21T01:42:18;146691.28;;;20.66;63.92
5877;BME280;2964;42.144;24.730;2022-07-21T01:44:44;146588.78;;;20.24;65.06
5877;BME280;2964;42.144;24.730;2022-07-21T01:47:11;146683.72;;;20.62;65.34
5877;BME280;2964;42.144;24.730;2022-07-21T01:49:38;146691.28;;;20.66;65.31
5877;BME280;2964;42.144;24.730;2022-07-21T01:52:05;146728.03;;;20.80;64.32
5877;BME280;2964;42.144;24.730;2022-07-21T01:54:33;146696.41;;;20.68;64.72
5877;BME280;2964;42.144;24.730;2022-07-21T01:57:00;146683.72;;;20.62;65.22
5877;BME280;2964;42.144;24.730;2022-07-21T01:59:27;146658.34;;;20.52;64.86
5877;BME280;2964;42.144;24.730;2022-07-21T02:01:54;146679.94;;;20.61;65.38
5877;BME280;2964;42.144;24.730;2022-07-21T02:04:20;146664.72;;;20.55;64.92
5877;BME280;2964;42.144;24.730;2022-07-21T02:06:47;146665.97;;;20.55;65.43
5877;BME280;2964;42.144;24.730;2022-07-21T02:09:14;146645.69;;;20.47;64.98
5877;BME280;2964;42.144;24.730;2022-07-21T02:11:42;146655.84;;;20.51;64.66
5877;BME280;2964;42.144;24.730;2022-07-21T02:14:09;146654.53;;;20.51;64.92
5877;BME280;2964;42.144;24.730;2022-07-21T02:16:35;146601.44;;;20.29;64.64
5877;BME280;2964;42.144;24.730;2022-07-21T02:19:03;146626.72;;;20.39;65.03
5877;BME280;2964;42.144;24.730;2022-07-21T02:21:30;146639.38;;;20.44;64.29
5877;BME280;2964;42.144;24.730;2022-07-21T02:23:56;146626.72;;;20.39;64.92
5877;BME280;2964;42.144;24.730;2022-07-21T02:26:23;146628.00;;;20.40;65.08
5877;BME280;2964;42.144;24.730;2022-07-21T02:28:51;146616.59;;;20.35;64.23
5877;BME280;2964;42.144;24.730;2022-07-21T02:31:18;146633.06;;;20.42;63.64
5877;BME280;2964;42.144;24.730;2022-07-21T02:33:45;146664.72;;;20.55;62.62
5877;BME280;2964;42.144;24.730;2022-07-21T02:36:12;146638.13;;;20.44;62.77
5877;BME280;2964;42.144;24.730;2022-07-21T02:38:39;146622.91;;;20.38;63.89
5877;BME280;2964;42.144;24.730;2022-07-21T02:41:05;146591.28;;;20.25;63.38
5877;BME280;2964;42.144;24.730;2022-07-21T02:43:32;146557.13;;;20.11;64.54
5877;BME280;2964;42.144;24.730;2022-07-21T02:46:00;146595.06;;;20.27;63.47
5877;BME280;2964;42.144;24.730;2022-07-21T02:48:27;146568.50;;;20.16;64.61
5877;BME280;2964;42.144;24.730;2022-07-21T02:50:54;146616.59;;;20.35;63.74
5877;BME280;2964;42.144;24.730;2022-07-21T02:53:21;146645.69;;;20.47;62.50
5877;BME280;2964;42.144;24.730;2022-07-21T02:55:50;146597.63;;;20.28;63.14
5877;BME280;2964;42.144;24.730;2022-07-21T02:58:20;146640.63;;;20.45;63.08
5877;BME280;2964;42.144;24.730;2022-07-21T03:00:49;146603.94;;;20.30;63.68
5877;BME280;2964;42.144;24.730;2022-07-21T03:03:19;146692.59;;;20.66;62.42
5877;BME280;2964;42.144;24.730;2022-07-21T03:05:46;146615.34;;;20.35;63.05
5877;BME280;2964;42.144;24.730;2022-07-21T03:08:14;146564.75;;;20.14;64.20
5877;BME280;2964;42.144;24.730;2022-07-21T03:10:41;146529.31;;;20.00;64.39
5877;BME280;2964;42.144;24.730;2022-07-21T03:13:08;146483.78;;;19.81;64.91
5877;BME280;2964;42.144;24.730;2022-07-21T03:15:36;146549.53;;;20.08;64.69
5877;BME280;2964;42.144;24.730;2022-07-21T03:18:03;146526.75;;;19.99;64.42
5877;BME280;2964;42.144;24.730;2022-07-21T03:20:34;146595.06;;;20.27;63.71
5877;BME280;2964;42.144;24.730;2022-07-21T03:23:01;146559.69;;;20.12;63.76
5877;BME280;2964;42.144;24.730;2022-07-21T03:25:28;146611.53;;;20.33;63.50
5877;BME280;2964;42.144;24.730;2022-07-21T03:27:55;146515.41;;;19.94;64.82
5877;BME280;2964;42.144;24.730;2022-07-21T03:30:22;146559.69;;;20.12;64.62
5877;BME280;2964;42.144;24.730;2022-07-21T03:32:50;146605.25;;;20.31;64.33
5877;BME280;2964;42.144;24.730;2022-07-21T03:35:18;146534.38;;;20.02;65.21
5877;BME280;2964;42.144;24.730;2022-07-21T03:37:49;146641.94;;;20.46;64.20
5877;BME280;2964;42.144;24.730;2022-07-21T03:40:18;146483.78;;;19.81;66.72
5877;BME280;2964;42.144;24.730;2022-07-21T03:42:48;146466.06;;;19.74;67.36
5877;BME280;2964;42.144;24.730;2022-07-21T03:45:15;146453.34;;;19.69;67.59
5877;BME280;2964;42.144;24.730;2022-07-21T03:47:42;146541.97;;;20.05;65.72
5877;BME280;2964;42.144;24.730;2022-07-21T03:50:09;146425.53;;;19.58;67.31
5877;BME280;2964;42.144;24.730;2022-07-21T03:52:38;146422.97;;;19.57;67.46
5877;BME280;2964;42.144;24.730;2022-07-21T03:55:07;146458.41;;;19.71;67.51
5877;BME280;2964;42.144;24.730;2022-07-21T03:57:41;146533.13;;;20.01;66.34
5877;BME280;2964;42.144;24.730;2022-07-21T04:00:11;146534.38;;;20.02;65.66
5877;BME280;2964;42.144;24.730;2022-07-21T04:02:38;146595.06;;;20.27;65.46
5877;BME280;2964;42.144;24.730;2022-07-21T04:05:08;146645.69;;;20.47;64.45
5877;BME280;2964;42.144;24.730;2022-07-21T04:07:35;146678.66;;;20.60;63.81
5877;BME280;2964;42.144;24.730;2022-07-21T04:10:03;146682.47;;;20.62;64.19
5877;BME280;2964;42.144;24.730;2022-07-21T04:12:31;146697.66;;;20.68;63.95
5877;BME280;2964;42.144;24.730;2022-07-21T04:14:58;146700.16;;;20.69;64.47
5877;BME280;2964;42.144;24.730;2022-07-21T04:17:24;146700.16;;;20.69;64.70
5877;BME280;2964;42.144;24.730;2022-07-21T04:19:51;146697.66;;;20.68;64.43
5877;BME280;2964;42.144;24.730;2022-07-21T04:22:18;146712.81;;;20.74;64.19
5877;BME280;2964;42.144;24.730;2022-07-21T04:24:44;146760.94;;;20.94;63.65
5877;BME280;2964;42.144;24.730;2022-07-21T04:27:11;146863.47;;;21.35;62.21
5877;BME280;2964;42.144;24.730;2022-07-21T04:29:39;146883.75;;;21.44;61.55
5877;BME280;2964;42.144;24.730;2022-07-21T04:32:06;147068.72;;;22.18;59.68
5877;BME280;2964;42.144;24.730;2022-07-21T04:34:33;147220.84;;;22.80;57.94
5877;BME280;2964;42.144;24.730;2022-07-21T04:36:59;147586.16;;;24.28;54.04
5877;BME280;2964;42.144;24.730;2022-07-21T04:39:26;147824.84;;;25.24;49.92
5877;BME280;2964;42.144;24.730;2022-07-21T04:41:54;147970.88;;;25.84;48.49
5877;BME280;2964;42.144;24.730;2022-07-21T04:44:21;148171.72;;;26.65;46.23
5877;BME280;2964;42.144;24.730;2022-07-21T04:46:49;148270.84;;;27.05;44.92
5877;BME280;2964;42.144;24.730;2022-07-21T04:49:16;148317.88;;;27.24;45.10
5877;BME280;2964;42.144;24.730;2022-07-21T04:51:43;148494.72;;;27.95;43.21
5877;BME280;2964;42.144;24.730;2022-07-21T04:54:09;148466.69;;;27.84;44.29
5877;BME280;2964;42.144;24.730;2022-07-21T04:56:39;148707.19;;;28.81;42.06
5877;BME280;2964;42.144;24.730;2022-07-21T04:59:06;148705.94;;;28.80;42.64
5877;BME280;2964;42.144;24.730;2022-07-21T05:01:33;148679.19;;;28.69;42.73
5877;BME280;2964;42.144;24.730;2022-07-21T05:04:01;148890.56;;;29.55;41.28
5877;BME280;2964;42.144;24.730;2022-07-21T05:06:28;148747.91;;;28.97;41.24
5877;BME280;2964;42.144;24.730;2022-07-21T05:08:55;148908.34;;;29.62;41.50
5877;BME280;2964;42.144;24.730;2022-07-21T05:11:23;149310.97;;;31.24;38.33
5877;BME280;2964;42.144;24.730;2022-07-21T05:13:49;149309.69;;;31.24;38.65
5877;BME280;2964;42.144;24.730;2022-07-21T05:16:16;149467.81;;;31.87;35.84
5877;BME280;2964;42.144;24.730;2022-07-21T05:18:43;149332.66;;;31.33;36.36
5877;BME280;2964;42.144;24.730;2022-07-21T05:21:11;149767.56;;;33.08;33.37
5877;BME280;2964;42.144;24.730;2022-07-21T05:23:38;149731.84;;;32.94;33.06
5877;BME280;2964;42.144;24.730;2022-07-21T05:26:04;149568.59;;;32.28;34.71
5877;BME280;2964;42.144;24.730;2022-07-21T05:28:31;149656.63;;;32.63;32.94
5877;BME280;2964;42.144;24.730;2022-07-21T05:30:58;149817.38;;;33.28;32.78
5877;BME280;2964;42.144;24.730;2022-07-21T05:33:25;149637.44;;;32.56;35.83
5877;BME280;2964;42.144;24.730;2022-07-21T05:35:51;149588.97;;;32.36;34.12
5877;BME280;2964;42.144;24.730;2022-07-21T05:38:19;149765.00;;;33.07;33.50
5877;BME280;2964;42.144;24.730;2022-07-21T05:40:47;149890.13;;;33.57;33.68
5877;BME280;2964;42.144;24.730;2022-07-21T05:43:14;150024.16;;;34.11;31.63
5877;BME280;2964;42.144;24.730;2022-07-21T05:45:40;150109.75;;;34.46;31.25
5877;BME280;2964;42.144;24.730;2022-07-21T05:48:07;150408.66;;;35.66;30.47
5877;BME280;2964;42.144;24.730;2022-07-21T05:50:34;150348.63;;;35.42;30.05
5877;BME280;2964;42.144;24.730;2022-07-21T05:53:01;150128.88;;;34.53;31.14
5877;BME280;2964;42.144;24.730;2022-07-21T05:55:29;150375.41;;;35.52;30.09
5877;BME280;2964;42.144;24.730;2022-07-21T05:57:56;150420.19;;;35.70;30.77
5877;BME280;2964;42.144;24.730;2022-07-21T06:00:22;150505.81;;;36.05;29.23
5877;BME280;2964;42.144;24.730;2022-07-21T06:02:49;150564.66;;;36.28;27.51
5877;BME280;2964;42.144;24.730;2022-07-21T06:05:16;150482.81;;;35.95;29.35
5877;BME280;2964;42.144;24.730;2022-07-21T06:07:43;150705.25;;;36.85;28.77
5877;BME280;2964;42.144;24.730;2022-07-21T06:10:10;150677.13;;;36.74;27.73
5877;BME280;2964;42.144;24.730;2022-07-21T06:12:39;150670.75;;;36.71;29.08
5877;BME280;2964;42.144;24.730;2022-07-21T06:15:06;150683.56;;;36.76;29.01
5877;BME280;2964;42.144;24.730;2022-07-21T06:17:38;150909.94;;;37.67;27.02
5877;BME280;2964;42.144;24.730;2022-07-21T06:20:06;150609.34;;;36.46;28.81
5877;BME280;2964;42.144;24.730;2022-07-21T06:22:33;151059.59;;;38.27;25.97
5877;BME280;2964;42.144;24.730;2022-07-21T06:25:00;150617.03;;;36.49;27.47
5877;BME280;2964;42.144;24.730;2022-07-21T06:27:27;150756.38;;;37.05;27.95
5877;BME280;2964;42.144;24.730;2022-07-21T06:29:55;150918.91;;;37.71;27.12
5877;BME280;2964;42.144;24.730;2022-07-21T06:32:24;150979.00;;;37.95;25.98
5877;BME280;2964;42.144;24.730;2022-07-21T06:34:51;151064.72;;;38.29;25.43
5877;BME280;2964;42.144;24.730;2022-07-21T06:37:17;150854.91;;;37.45;26.64
5877;BME280;2964;42.144;24.730;2022-07-21T06:39:44;150894.53;;;37.61;25.97
5877;BME280;2964;42.144;24.730;2022-07-21T06:42:11;151048.13;;;38.22;25.18
5877;BME280;2964;42.144;24.730;2022-07-21T06:44:38;151328.44;;;39.35;24.20
5877;BME280;2964;42.144;24.730;2022-07-21T06:47:06;151511.59;;;40.08;22.76
5877;BME280;2964;42.144;24.730;2022-07-21T06:49:33;151245.25;;;39.02;23.62
5877;BME280;2964;42.144;24.730;2022-07-21T06:52:00;151083.94;;;38.37;23.23
5877;BME280;2964;42.144;24.730;2022-07-21T06:54:26;150909.94;;;37.67;24.67
5877;BME280;2964;42.144;24.730;2022-07-21T06:56:53;150994.34;;;38.01;24.29
5877;BME280;2964;42.144;24.730;2022-07-21T06:59:20;151050.66;;;38.23;23.24
5877;BME280;2964;42.144;24.730;2022-07-21T07:01:46;151071.16;;;38.32;23.19
5877;BME280;2964;42.144;24.730;2022-07-21T07:04:14;151247.78;;;39.03;23.36
5877;BME280;2964;42.144;24.730;2022-07-21T07:06:41;151182.50;;;38.76;23.65
5877;BME280;2964;42.144;24.730;2022-07-21T07:09:08;151432.16;;;39.76;21.99
5877;BME280;2964;42.144;24.730;2022-07-21T07:11:35;151255.47;;;39.06;22.76
5877;BME280;2964;42.144;24.730;2022-07-21T07:14:01;150963.66;;;37.89;23.96
5877;BME280;2964;42.144;24.730;2022-07-21T07:16:28;151242.69;;;39.00;24.34
5877;BME280;2964;42.144;24.730;2022-07-21T07:18:55;150999.44;;;38.03;23.76
5877;BME280;2964;42.144;24.730;2022-07-21T07:21:23;151118.47;;;38.51;23.53
5877;BME280;2964;42.144;24.730;2022-07-21T07:23:50;151181.22;;;38.76;24.25
5877;BME280;2964;42.144;24.730;2022-07-21T07:26:16;151521.84;;;40.12;22.41
5877;BME280;2964;42.144;24.730;2022-07-21T07:28:43;151760.16;;;41.08;20.61
5877;BME280;2964;42.144;24.730;2022-07-21T07:31:10;151506.50;;;40.06;22.26
5877;BME280;2964;42.144;24.730;2022-07-21T07:33:37;151580.78;;;40.36;23.04
5877;BME280;2964;42.144;24.730;2022-07-21T07:36:03;151543.63;;;40.21;22.72
5877;BME280;2964;42.144;24.730;2022-07-21T07:38:32;151333.56;;;39.37;22.70
5877;BME280;2964;42.144;24.730;2022-07-21T07:40:58;151567.94;;;40.31;23.09
5877;BME280;2964;42.144;24.730;2022-07-21T07:43:25;151246.53;;;39.02;24.16
5877;BME280;2964;42.144;24.730;2022-07-21T07:45:52;151587.19;;;40.39;22.04
5877;BME280;2964;42.144;24.730;2022-07-21T07:48:19;151601.25;;;40.44;22.97
5877;BME280;2964;42.144;24.730;2022-07-21T07:50:45;151401.44;;;39.64;23.07
5877;BME280;2964;42.144;24.730;2022-07-21T07:53:12;151596.16;;;40.42;23.46
5877;BME280;2964;42.144;24.730;2022-07-21T07:55:40;151560.22;;;40.28;21.91
5877;BME280;2964;42.144;24.730;2022-07-21T07:58:07;151611.50;;;40.48;21.58
5877;BME280;2964;42.144;24.730;2022-07-21T08:00:34;151428.34;;;39.75;22.93
5877;BME280;2964;42.144;24.730;2022-07-21T08:03:01;151667.88;;;40.71;21.94
5877;BME280;2964;42.144;24.730;2022-07-21T08:05:27;151735.78;;;40.98;21.88
5877;BME280;2964;42.144;24.730;2022-07-21T08:07:54;151846.00;;;41.42;22.26
5877;BME280;2964;42.144;24.730;2022-07-21T08:10:21;151780.63;;;41.16;21.49
5877;BME280;2964;42.144;24.730;2022-07-21T08:12:49;151433.47;;;39.77;22.43
5877;BME280;2964;42.144;24.730;2022-07-21T08:15:16;151361.75;;;39.48;23.37
5877;BME280;2964;42.144;24.730;2022-07-21T08:17:42;151462.88;;;39.89;21.55
5877;BME280;2964;42.144;24.730;2022-07-21T08:20:10;151646.09;;;40.62;20.52
5877;BME280;2964;42.144;24.730;2022-07-21T08:22:37;151783.22;;;41.17;20.75
5877;BME280;2964;42.144;24.730;2022-07-21T08:25:04;151539.78;;;40.20;22.00
5877;BME280;2964;42.144;24.730;2022-07-21T08:27:31;151014.88;;;38.09;24.13
5877;BME280;2964;42.144;24.730;2022-07-21T08:29:59;151437.25;;;39.79;22.94
5877;BME280;2964;42.144;24.730;2022-07-21T08:32:26;151620.47;;;40.52;21.94
5877;BME280;2964;42.144;24.730;2022-07-21T08:34:53;151291.31;;;39.20;23.08
5877;BME280;2964;42.144;24.730;2022-07-21T08:37:20;151232.41;;;38.96;22.62
5877;BME280;2964;42.144;24.730;2022-07-21T08:39:47;151484.72;;;39.98;23.85
5877;BME280;2964;42.144;24.730;2022-07-21T08:42:14;151626.91;;;40.55;22.38
5877;BME280;2964;42.144;24.730;2022-07-21T08:44:41;151232.41;;;38.96;22.75
5877;BME280;2964;42.144;24.730;2022-07-21T08:47:09;150958.50;;;37.86;24.46
5877;BME280;2964;42.144;24.730;2022-07-21T08:49:36;151583.34;;;40.37;23.48
5877;BME280;2964;42.144;24.730;2022-07-21T08:52:05;151749.88;;;41.04;22.44
5877;BME280;2964;42.144;24.730;2022-07-21T08:54:32;151240.09;;;38.99;22.58
5877;BME280;2964;42.144;24.730;2022-07-21T08:56:59;151632.03;;;40.57;22.04
5877;BME280;2964;42.144;24.730;2022-07-21T08:59:26;151739.63;;;41.00;20.58
5877;BME280;2964;42.144;24.730;2022-07-21T09:01:53;151701.22;;;40.84;20.19
5877;BME280;2964;42.144;24.730;2022-07-21T09:04:26;151640.97;;;40.60;21.69
5877;BME280;2964;42.144;24.730;2022-07-21T09:06:55;151824.25;;;41.34;20.18
5877;BME280;2964;42.144;24.730;2022-07-21T09:09:22;151721.69;;;40.93;20.71
5877;BME280;2964;42.144;24.730;2022-07-21T09:11:50;151879.34;;;41.56;21.42
5877;BME280;2964;42.144;24.730;2022-07-21T09:14:19;151550.00;;;40.24;21.13
5877;BME280;2964;42.144;24.730;2022-07-21T09:16:48;151862.69;;;41.49;20.60
5877;BME280;2964;42.144;24.730;2022-07-21T09:19:18;151614.09;;;40.49;21.32
5877;BME280;2964;42.144;24.730;2022-07-21T09:21:47;151685.81;;;40.78;20.35
5877;BME280;2964;42.144;24.730;2022-07-21T09:24:17;151854.97;;;41.46;21.00
5877;BME280;2964;42.144;24.730;2022-07-21T09:27:10;151575.69;;;40.34;20.24
5877;BME280;2964;42.144;24.730;2022-07-21T09:29:40;151910.13;;;41.68;19.49
5877;BME280;2964;42.144;24.730;2022-07-21T09:32:18;152031.94;;;42.17;20.72
5877;BME280;2964;42.144;24.730;2022-07-21T09:34:47;151978.03;;;41.95;20.28
5877;BME280;2964;42.144;24.730;2022-07-21T09:37:17;151939.63;;;41.80;20.35
5877;BME280;2964;42.144;24.730;2022-07-21T09:39:47;151913.97;;;41.70;19.02
5877;BME280;2964;42.144;24.730;2022-07-21T09:42:17;152165.28;;;42.70;18.71
5877;BME280;2964;42.144;24.730;2022-07-21T09:44:45;152203.75;;;42.86;20.27
5877;BME280;2964;42.144;24.730;2022-07-21T09:47:15;152203.75;;;42.86;18.60
5877;BME280;2964;42.144;24.730;2022-07-21T09:49:43;151438.56;;;39.79;20.70
5877;BME280;2964;42.144;24.730;2022-07-21T09:52:23;151924.22;;;41.74;19.98
5877;BME280;2964;42.144;24.730;2022-07-21T09:54:50;151867.78;;;41.51;20.09
5877;BME280;2964;42.144;24.730;2022-07-21T09:57:18;152044.72;;;42.22;21.01
5877;BME280;2964;42.144;24.730;2022-07-21T09:59:47;151826.78;;;41.35;20.10
5877;BME280;2964;42.144;24.730;2022-07-21T10:02:17;151712.72;;;40.89;20.97
5877;BME280;2964;42.144;24.730;2022-07-21T10:04:45;151892.13;;;41.61;19.59
5877;BME280;2964;42.144;24.730;2022-07-21T10:07:13;151548.72;;;40.23;20.90
5877;BME280;2964;42.144;24.730;2022-07-21T10:09:44;151560.22;;;40.28;21.33
5877;BME280;2964;42.144;24.730;2022-07-21T10:12:11;151589.75;;;40.40;20.46
5877;BME280;2964;42.144;24.730;2022-07-21T10:14:38;151689.66;;;40.80;22.13
5877;BME280;2964;42.144;24.730;2022-07-21T10:17:05;151632.03;;;40.57;21.85
5877;BME280;2964;42.144;24.730;2022-07-21T10:19:37;151470.63;;;39.92;22.09
5877;BME280;2964;42.144;24.730;2022-07-21T10:22:09;151051.97;;;38.24;23.54
5877;BME280;2964;42.144;24.730;2022-07-21T10:24:41;151122.31;;;38.52;23.57
5877;BME280;2964;42.144;24.730;2022-07-21T10:27:10;150796.06;;;37.21;23.78
5877;BME280;2964;42.144;24.730;2022-07-21T10:29:52;150921.44;;;37.72;24.70
5877;BME280;2964;42.144;24.730;2022-07-21T10:32:21;150939.34;;;37.79;24.31
5877;BME280;2964;42.144;24.730;2022-07-21T10:34:48;150904.84;;;37.65;24.50
5877;BME280;2964;42.144;24.730;2022-07-21T10:37:48;150848.47;;;37.42;27.05
5877;BME280;2964;42.144;24.730;2022-07-21T10:40:37;150510.91;;;36.07;24.54
5877;BME280;2964;42.144;24.730;2022-07-21T10:43:40;150283.41;;;35.15;25.68
5877;BME280;2964;42.144;24.730;2022-07-21T10:46:31;150344.78;;;35.40;28.03
5877;BME280;2964;42.144;24.730;2022-07-21T10:48:59;150275.78;;;35.12;27.99
5877;BME280;2964;42.144;24.730;2022-07-21T10:51:26;150296.25;;;35.21;27.04
5877;BME280;2964;42.144;24.730;2022-07-21T10:54:17;150310.28;;;35.26;27.19
5877;BME280;2964;42.144;24.730;2022-07-21T10:56:44;150266.84;;;35.09;27.03
5877;BME280;2964;42.144;24.730;2022-07-21T10:59:12;150280.88;;;35.14;28.39
5877;BME280;2964;42.144;24.730;2022-07-21T11:01:39;150303.91;;;35.24;27.22
5877;BME280;2964;42.144;24.730;2022-07-21T11:04:07;150301.34;;;35.23;27.42
5877;BME280;2964;42.144;24.730;2022-07-21T11:06:36;150242.59;;;34.99;25.83
5877;BME280;2964;42.144;24.730;2022-07-21T11:09:12;150148.03;;;34.61;27.47
5877;BME280;2964;42.144;24.730;2022-07-21T11:11:56;150176.16;;;34.72;28.15
5877;BME280;2964;42.144;24.730;2022-07-21T11:14:37;150180.00;;;34.74;27.51
5877;BME280;2964;42.144;24.730;2022-07-21T11:17:04;150211.94;;;34.87;27.85
5877;BME280;2964;42.144;24.730;2022-07-21T11:19:35;150211.94;;;34.87;27.94
5877;BME280;2964;42.144;24.730;2022-07-21T11:22:05;150210.66;;;34.86;27.52
5877;BME280;2964;42.144;24.730;2022-07-21T11:24:32;150218.28;;;34.89;28.13
5877;BME280;2964;42.144;24.730;2022-07-21T11:27:01;150081.63;;;34.34;27.15
5877;BME280;2964;42.144;24.730;2022-07-21T11:29:29;150136.53;;;34.56;27.27
5877;BME280;2964;42.144;24.730;2022-07-21T11:31:58;150172.31;;;34.71;27.44
5877;BME280;2964;42.144;24.730;2022-07-21T11:34:37;150160.81;;;34.66;26.79
5877;BME280;2964;42.144;24.730;2022-07-21T11:37:04;150162.06;;;34.67;27.10
5877;BME280;2964;42.144;24.730;2022-07-21T11:39:31;150176.16;;;34.72;27.39
5877;BME280;2964;42.144;24.730;2022-07-21T11:42:02;150200.41;;;34.82;26.93
5877;BME280;2964;42.144;24.730;2022-07-21T11:44:29;150196.63;;;34.80;26.66
5877;BME280;2964;42.144;24.730;2022-07-21T11:46:59;150159.50;;;34.66;25.92
5877;BME280;2964;42.144;24.730;2022-07-21T11:49:26;150210.66;;;34.86;27.32
5877;BME280;2964;42.144;24.730;2022-07-21T11:51:54;150211.94;;;34.87;27.57
5877;BME280;2964;42.144;24.730;2022-07-21T11:54:25;150192.78;;;34.79;27.77
5877;BME280;2964;42.144;24.730;2022-07-21T11:56:53;150183.84;;;34.75;26.76
5877;BME280;2964;42.144;24.730;2022-07-21T11:59:20;150180.00;;;34.74;26.50
5877;BME280;2964;42.144;24.730;2022-07-21T12:02:00;150199.16;;;34.82;26.76
5877;BME280;2964;42.144;24.730;2022-07-21T12:04:35;150196.63;;;34.80;26.82
5877;BME280;2964;42.144;24.730;2022-07-21T12:07:04;150195.31;;;34.80;26.78
5877;BME280;2964;42.144;24.730;2022-07-21T12:09:32;150163.34;;;34.67;26.39
5877;BME280;2964;42.144;24.730;2022-07-21T12:11:59;150197.88;;;34.81;26.74
5877;BME280;2964;42.144;24.730;2022-07-21T12:14:48;150191.47;;;34.78;26.88
5877;BME280;2964;42.144;24.730;2022-07-21T12:17:31;150180.00;;;34.74;25.72
5877;BME280;2964;42.144;24.730;2022-07-21T12:19:58;150185.09;;;34.76;26.72
5877;BME280;2964;42.144;24.730;2022-07-21T12:22:39;150162.06;;;34.67;28.53
5877;BME280;2964;42.144;24.730;2022-07-21T12:25:08;150140.34;;;34.58;27.66
5877;BME280;2964;42.144;24.730;2022-07-21T12:27:37;150109.75;;;34.46;29.46
5877;BME280;2964;42.144;24.730;2022-07-21T12:30:07;150102.06;;;34.42;28.80
5877;BME280;2964;42.144;24.730;2022-07-21T12:32:40;150091.88;;;34.38;28.52
5877;BME280;2964;42.144;24.730;2022-07-21T12:35:20;150082.94;;;34.35;30.00
5877;BME280;2964;42.144;24.730;2022-07-21T12:38:04;150051.03;;;34.22;28.80
5877;BME280;2964;42.144;24.730;2022-07-21T12:40:33;150062.47;;;34.27;29.62
5877;BME280;2964;42.144;24.730;2022-07-21T12:43:09;150045.91;;;34.20;30.57
5877;BME280;2964;42.144;24.730;2022-07-21T12:45:52;149989.66;;;33.97;27.96
5877;BME280;2964;42.144;24.730;2022-07-21T12:48:22;150025.41;;;34.12;29.41
5877;BME280;2964;42.144;24.730;2022-07-21T12:51:04;150039.50;;;34.17;26.52
5877;BME280;2964;42.144;24.730;2022-07-21T12:53:32;150061.22;;;34.26;28.96
5877;BME280;2964;42.144;24.730;2022-07-21T12:55:59;150065.06;;;34.28;26.23
5877;BME280;2964;42.144;24.730;2022-07-21T12:58:26;150033.09;;;34.15;26.25
5877;BME280;2964;42.144;24.730;2022-07-21T13:00:53;150107.19;;;34.45;25.54
5877;BME280;2964;42.144;24.730;2022-07-21T13:03:21;150114.84;;;34.48;25.55
5877;BME280;2964;42.144;24.730;2022-07-21T13:05:48;150102.06;;;34.42;25.47
5877;BME280;2964;42.144;24.730;2022-07-21T13:08:15;150094.41;;;34.39;25.53